sensor_id;sensor_type;location;lat;lon;timestamp;P1;durP1;ratioP1;P2;durP2;ratioP2
22248;SDS011;67538;52.180;5.646;2023-06-26T00:01:33;19.33;;;15.48;;
22248;SDS011;67538;52.180;5.646;2023-06-26T00:04:00;21.90;;;16.05;;
22248;SDS011;67538;52.180;5.646;2023-06-26T00:06:28;18.87;;;14.73;;
22248;SDS011;67538;52.180;5.646;2023-06-26T00:08:55;19.47;;;15.40;;
22248;SDS011;67538;52.180;5.646;2023-06-26T00:11:24;18.17;;;14.90;;
22248;SDS011;67538;52.180;5.646;2023-06-26T00:13:52;17.52;;;15.07;;
22248;SDS011;67538;52.180;5.646;2023-06-26T00:16:21;20.08;;;14.50;;
22248;SDS011;67538;52.180;5.646;2023-06-26T00:18:48;16.27;;;14.30;;
22248;SDS011;67538;52.180;5.646;2023-06-26T00:21:15;22.55;;;15.48;;
22248;SDS011;67538;52.180;5.646;2023-06-26T00:23:42;17.15;;;15.35;;
22248;SDS011;67538;52.180;5.646;2023-06-26T00:26:09;18.73;;;16.27;;
22248;SDS011;67538;52.180;5.646;2023-06-26T00:28:37;18.10;;;15.27;;
22248;SDS011;67538;52.180;5.646;2023-06-26T00:31:04;20.05;;;15.65;;
22248;SDS011;67538;52.180;5.646;2023-06-26T00:33:32;24.97;;;16.50;;
22248;SDS011;67538;52.180;5.646;2023-06-26T00:35:59;19.08;;;15.95;;
22248;SDS011;67538;52.180;5.646;2023-06-26T00:38:27;20.58;;;16.88;;
22248;SDS011;67538;52.180;5.646;2023-06-26T00:40:54;20.40;;;17.30;;
22248;SDS011;67538;52.180;5.646;2023-06-26T00:43:21;21.58;;;17.02;;
22248;SDS011;67538;52.180;5.646;2023-06-26T00:45:48;22.73;;;18.42;;
22248;SDS011;67538;52.180;5.646;2023-06-26T00:48:15;24.45;;;19.02;;
22248;SDS011;67538;52.180;5.646;2023-06-26T00:50:44;20.55;;;18.30;;
22248;SDS011;67538;52.180;5.646;2023-06-26T00:53:12;21.35;;;17.77;;
22248;SDS011;67538;52.180;5.646;2023-06-26T00:55:39;21.40;;;18.02;;
22248;SDS011;67538;52.180;5.646;2023-06-26T00:58:06;21.50;;;17.60;;
22248;SDS011;67538;52.180;5.646;2023-06-26T01:00:33;21.83;;;16.83;;
22248;SDS011;67538;52.180;5.646;2023-06-26T01:03:00;19.27;;;16.40;;
22248;SDS011;67538;52.180;5.646;2023-06-26T01:05:28;18.33;;;15.88;;
22248;SDS011;67538;52.180;5.646;2023-06-26T01:07:57;23.85;;;16.50;;
22248;SDS011;67538;52.180;5.646;2023-06-26T01:10:25;21.17;;;17.00;;
22248;SDS011;67538;52.180;5.646;2023-06-26T01:12:54;20.65;;;16.02;;
22248;SDS011;67538;52.180;5.646;2023-06-26T01:15:21;19.77;;;17.33;;
22248;SDS011;67538;52.180;5.646;2023-06-26T01:17:48;20.10;;;16.63;;
22248;SDS011;67538;52.180;5.646;2023-06-26T01:20:17;19.75;;;16.05;;
22248;SDS011;67538;52.180;5.646;2023-06-26T01:22:49;21.60;;;16.73;;
22248;SDS011;67538;52.180;5.646;2023-06-26T01:25:28;20.58;;;16.75;;
22248;SDS011;67538;52.180;5.646;2023-06-26T01:28:05;21.40;;;16.00;;
22248;SDS011;67538;52.180;5.646;2023-06-26T01:30:33;23.00;;;17.27;;
22248;SDS011;67538;52.180;5.646;2023-06-26T01:33:02;20.97;;;17.07;;
22248;SDS011;67538;52.180;5.646;2023-06-26T01:35:30;20.20;;;15.77;;
22248;SDS011;67538;52.180;5.646;2023-06-26T01:38:11;22.23;;;15.82;;
22248;SDS011;67538;52.180;5.646;2023-06-26T01:40:39;19.02;;;14.48;;
22248;SDS011;67538;52.180;5.646;2023-06-26T01:43:10;19.17;;;14.10;;
22248;SDS011;67538;52.180;5.646;2023-06-26T01:45:42;19.10;;;12.80;;
22248;SDS011;67538;52.180;5.646;2023-06-26T01:48:10;18.05;;;12.45;;
22248;SDS011;67538;52.180;5.646;2023-06-26T01:50:39;16.48;;;12.07;;
22248;SDS011;67538;52.180;5.646;2023-06-26T01:53:11;15.80;;;12.35;;
22248;SDS011;67538;52.180;5.646;2023-06-26T01:55:44;15.05;;;11.43;;
22248;SDS011;67538;52.180;5.646;2023-06-26T01:58:18;16.63;;;11.48;;
22248;SDS011;67538;52.180;5.646;2023-06-26T02:00:48;14.52;;;11.25;;
22248;SDS011;67538;52.180;5.646;2023-06-26T02:03:16;16.25;;;11.40;;
22248;SDS011;67538;52.180;5.646;2023-06-26T02:05:43;15.60;;;11.35;;
22248;SDS011;67538;52.180;5.646;2023-06-26T02:08:14;15.65;;;10.80;;
22248;SDS011;67538;52.180;5.646;2023-06-26T02:10:41;15.27;;;10.90;;
22248;SDS011;67538;52.180;5.646;2023-06-26T02:13:08;14.82;;;10.32;;
22248;SDS011;67538;52.180;5.646;2023-06-26T02:15:37;14.73;;;10.10;;
22248;SDS011;67538;52.180;5.646;2023-06-26T02:18:05;14.10;;;9.10;;
22248;SDS011;67538;52.180;5.646;2023-06-26T02:20:32;15.00;;;8.68;;
22248;SDS011;67538;52.180;5.646;2023-06-26T02:22:59;14.03;;;8.03;;
22248;SDS011;67538;52.180;5.646;2023-06-26T02:25:26;11.80;;;7.63;;
22248;SDS011;67538;52.180;5.646;2023-06-26T02:27:53;14.10;;;7.87;;
22248;SDS011;67538;52.180;5.646;2023-06-26T02:30:21;10.10;;;6.97;;
22248;SDS011;67538;52.180;5.646;2023-06-26T02:32:49;11.37;;;7.10;;
22248;SDS011;67538;52.180;5.646;2023-06-26T02:35:16;13.80;;;6.90;;
22248;SDS011;67538;52.180;5.646;2023-06-26T02:37:43;12.43;;;6.78;;
22248;SDS011;67538;52.180;5.646;2023-06-26T02:40:11;13.68;;;6.68;;
22248;SDS011;67538;52.180;5.646;2023-06-26T02:42:38;13.00;;;6.53;;
22248;SDS011;67538;52.180;5.646;2023-06-26T02:45:05;11.63;;;6.30;;
22248;SDS011;67538;52.180;5.646;2023-06-26T02:47:33;9.50;;;6.40;;
22248;SDS011;67538;52.180;5.646;2023-06-26T02:50:03;12.32;;;6.70;;
22248;SDS011;67538;52.180;5.646;2023-06-26T02:52:31;14.18;;;6.50;;
22248;SDS011;67538;52.180;5.646;2023-06-26T02:54:58;12.02;;;5.93;;
22248;SDS011;67538;52.180;5.646;2023-06-26T02:57:25;12.73;;;6.55;;
22248;SDS011;67538;52.180;5.646;2023-06-26T02:59:52;12.10;;;6.15;;
22248;SDS011;67538;52.180;5.646;2023-06-26T03:02:19;18.75;;;6.43;;
22248;SDS011;67538;52.180;5.646;2023-06-26T03:04:47;13.85;;;6.22;;
22248;SDS011;67538;52.180;5.646;2023-06-26T03:07:16;14.68;;;6.70;;
22248;SDS011;67538;52.180;5.646;2023-06-26T03:09:43;11.73;;;6.38;;
22248;SDS011;67538;52.180;5.646;2023-06-26T03:12:10;19.40;;;6.45;;
22248;SDS011;67538;52.180;5.646;2023-06-26T03:14:38;14.80;;;6.72;;
22248;SDS011;67538;52.180;5.646;2023-06-26T03:17:05;12.43;;;6.80;;
22248;SDS011;67538;52.180;5.646;2023-06-26T03:19:32;12.95;;;7.30;;
22248;SDS011;67538;52.180;5.646;2023-06-26T03:21:59;14.00;;;7.05;;
22248;SDS011;67538;52.180;5.646;2023-06-26T03:24:28;17.10;;;7.38;;
22248;SDS011;67538;52.180;5.646;2023-06-26T03:26:55;13.40;;;6.82;;
22248;SDS011;67538;52.180;5.646;2023-06-26T03:29:22;14.30;;;6.93;;
22248;SDS011;67538;52.180;5.646;2023-06-26T03:31:49;15.48;;;7.00;;
22248;SDS011;67538;52.180;5.646;2023-06-26T03:34:16;17.65;;;7.03;;
22248;SDS011;67538;52.180;5.646;2023-06-26T03:36:43;19.13;;;7.30;;
22248;SDS011;67538;52.180;5.646;2023-06-26T03:39:11;14.65;;;6.75;;
22248;SDS011;67538;52.180;5.646;2023-06-26T03:41:39;20.42;;;7.15;;
22248;SDS011;67538;52.180;5.646;2023-06-26T03:44:06;19.52;;;6.43;;
22248;SDS011;67538;52.180;5.646;2023-06-26T03:46:33;19.95;;;6.63;;
22248;SDS011;67538;52.180;5.646;2023-06-26T03:49:00;17.02;;;6.80;;
22248;SDS011;67538;52.180;5.646;2023-06-26T03:51:28;18.33;;;7.27;;
22248;SDS011;67538;52.180;5.646;2023-06-26T03:53:55;18.00;;;6.97;;
22248;SDS011;67538;52.180;5.646;2023-06-26T03:56:22;16.92;;;6.78;;
22248;SDS011;67538;52.180;5.646;2023-06-26T03:58:50;16.92;;;7.15;;
22248;SDS011;67538;52.180;5.646;2023-06-26T04:01:17;18.88;;;6.90;;
22248;SDS011;67538;52.180;5.646;2023-06-26T04:03:46;16.90;;;7.05;;
22248;SDS011;67538;52.180;5.646;2023-06-26T04:06:13;18.08;;;7.07;;
22248;SDS011;67538;52.180;5.646;2023-06-26T04:08:41;18.00;;;6.97;;
22248;SDS011;67538;52.180;5.646;2023-06-26T04:11:08;18.25;;;7.03;;
22248;SDS011;67538;52.180;5.646;2023-06-26T04:13:35;19.47;;;7.17;;
22248;SDS011;67538;52.180;5.646;2023-06-26T04:16:04;17.10;;;6.97;;
22248;SDS011;67538;52.180;5.646;2023-06-26T04:18:31;16.83;;;6.83;;
22248;SDS011;67538;52.180;5.646;2023-06-26T04:21:05;18.13;;;6.95;;
22248;SDS011;67538;52.180;5.646;2023-06-26T04:23:34;21.90;;;7.35;;
22248;SDS011;67538;52.180;5.646;2023-06-26T04:26:01;20.55;;;6.80;;
22248;SDS011;67538;52.180;5.646;2023-06-26T04:28:30;19.52;;;7.15;;
22248;SDS011;67538;52.180;5.646;2023-06-26T04:30:57;25.15;;;7.45;;
22248;SDS011;67538;52.180;5.646;2023-06-26T04:33:26;25.23;;;7.03;;
22248;SDS011;67538;52.180;5.646;2023-06-26T04:35:53;27.13;;;7.60;;
22248;SDS011;67538;52.180;5.646;2023-06-26T04:38:20;20.80;;;7.45;;
22248;SDS011;67538;52.180;5.646;2023-06-26T04:40:48;23.13;;;7.40;;
22248;SDS011;67538;52.180;5.646;2023-06-26T04:43:15;19.75;;;7.45;;
22248;SDS011;67538;52.180;5.646;2023-06-26T04:45:42;25.48;;;7.10;;
22248;SDS011;67538;52.180;5.646;2023-06-26T04:48:09;23.15;;;7.22;;
22248;SDS011;67538;52.180;5.646;2023-06-26T04:50:38;24.38;;;7.07;;
22248;SDS011;67538;52.180;5.646;2023-06-26T04:53:06;22.25;;;7.13;;
22248;SDS011;67538;52.180;5.646;2023-06-26T04:55:33;23.08;;;7.47;;
22248;SDS011;67538;52.180;5.646;2023-06-26T04:58:01;22.90;;;7.57;;
22248;SDS011;67538;52.180;5.646;2023-06-26T05:00:28;23.85;;;7.30;;
22248;SDS011;67538;52.180;5.646;2023-06-26T05:02:55;21.73;;;7.05;;
22248;SDS011;67538;52.180;5.646;2023-06-26T05:05:26;21.63;;;6.93;;
22248;SDS011;67538;52.180;5.646;2023-06-26T05:07:55;22.92;;;6.95;;
22248;SDS011;67538;52.180;5.646;2023-06-26T05:10:22;21.65;;;6.97;;
22248;SDS011;67538;52.180;5.646;2023-06-26T05:12:49;22.85;;;6.90;;
22248;SDS011;67538;52.180;5.646;2023-06-26T05:15:16;19.75;;;6.72;;
22248;SDS011;67538;52.180;5.646;2023-06-26T05:17:44;22.40;;;6.80;;
22248;SDS011;67538;52.180;5.646;2023-06-26T05:20:11;19.50;;;7.03;;
22248;SDS011;67538;52.180;5.646;2023-06-26T05:22:38;19.35;;;6.43;;
22248;SDS011;67538;52.180;5.646;2023-06-26T05:25:09;18.73;;;6.88;;
22248;SDS011;67538;52.180;5.646;2023-06-26T05:27:37;19.98;;;6.15;;
22248;SDS011;67538;52.180;5.646;2023-06-26T05:30:05;20.48;;;6.40;;
22248;SDS011;67538;52.180;5.646;2023-06-26T05:32:33;20.15;;;6.43;;
22248;SDS011;67538;52.180;5.646;2023-06-26T05:35:02;18.63;;;5.97;;
22248;SDS011;67538;52.180;5.646;2023-06-26T05:37:30;19.35;;;6.10;;
22248;SDS011;67538;52.180;5.646;2023-06-26T05:39:59;15.77;;;5.72;;
22248;SDS011;67538;52.180;5.646;2023-06-26T05:42:29;12.48;;;5.30;;
22248;SDS011;67538;52.180;5.646;2023-06-26T05:44:57;16.98;;;5.90;;
22248;SDS011;67538;52.180;5.646;2023-06-26T05:47:24;18.23;;;5.80;;
22248;SDS011;67538;52.180;5.646;2023-06-26T05:49:51;13.45;;;5.07;;
22248;SDS011;67538;52.180;5.646;2023-06-26T05:52:19;14.27;;;5.27;;
22248;SDS011;67538;52.180;5.646;2023-06-26T05:54:46;18.00;;;5.60;;
22248;SDS011;67538;52.180;5.646;2023-06-26T05:57:14;10.75;;;4.90;;
22248;SDS011;67538;52.180;5.646;2023-06-26T05:59:44;13.88;;;4.78;;
22248;SDS011;67538;52.180;5.646;2023-06-26T06:02:12;15.80;;;4.88;;
22248;SDS011;67538;52.180;5.646;2023-06-26T06:04:40;11.45;;;4.40;;
22248;SDS011;67538;52.180;5.646;2023-06-26T06:07:07;10.57;;;4.05;;
22248;SDS011;67538;52.180;5.646;2023-06-26T06:09:34;12.82;;;4.32;;
22248;SDS011;67538;52.180;5.646;2023-06-26T06:12:01;9.35;;;4.25;;
22248;SDS011;67538;52.180;5.646;2023-06-26T06:14:29;9.32;;;4.30;;
22248;SDS011;67538;52.180;5.646;2023-06-26T06:16:58;11.57;;;4.30;;
22248;SDS011;67538;52.180;5.646;2023-06-26T06:19:25;8.60;;;3.60;;
22248;SDS011;67538;52.180;5.646;2023-06-26T06:21:52;7.95;;;3.75;;
22248;SDS011;67538;52.180;5.646;2023-06-26T06:24:19;10.93;;;3.58;;
22248;SDS011;67538;52.180;5.646;2023-06-26T06:26:47;10.82;;;3.78;;
22248;SDS011;67538;52.180;5.646;2023-06-26T06:29:14;10.27;;;3.57;;
22248;SDS011;67538;52.180;5.646;2023-06-26T06:31:41;8.80;;;3.45;;
22248;SDS011;67538;52.180;5.646;2023-06-26T06:34:09;7.40;;;3.30;;
22248;SDS011;67538;52.180;5.646;2023-06-26T06:36:37;9.50;;;3.30;;
22248;SDS011;67538;52.180;5.646;2023-06-26T06:39:05;8.27;;;2.80;;
22248;SDS011;67538;52.180;5.646;2023-06-26T06:41:33;9.35;;;2.70;;
22248;SDS011;67538;52.180;5.646;2023-06-26T06:44:00;4.72;;;2.60;;
22248;SDS011;67538;52.180;5.646;2023-06-26T06:46:27;5.90;;;2.40;;
22248;SDS011;67538;52.180;5.646;2023-06-26T06:48:54;10.38;;;3.60;;
22248;SDS011;67538;52.180;5.646;2023-06-26T06:51:23;7.20;;;3.10;;
22248;SDS011;67538;52.180;5.646;2023-06-26T06:53:50;9.63;;;3.30;;
22248;SDS011;67538;52.180;5.646;2023-06-26T06:56:17;10.90;;;3.10;;
22248;SDS011;67538;52.180;5.646;2023-06-26T06:58:44;7.70;;;2.88;;
22248;SDS011;67538;52.180;5.646;2023-06-26T07:01:12;8.27;;;3.30;;
22248;SDS011;67538;52.180;5.646;2023-06-26T07:03:39;9.00;;;3.17;;
22248;SDS011;67538;52.180;5.646;2023-06-26T07:06:07;8.95;;;3.35;;
22248;SDS011;67538;52.180;5.646;2023-06-26T07:08:36;8.23;;;3.30;;
22248;SDS011;67538;52.180;5.646;2023-06-26T07:11:03;8.30;;;3.40;;
22248;SDS011;67538;52.180;5.646;2023-06-26T07:13:30;13.13;;;3.30;;
22248;SDS011;67538;52.180;5.646;2023-06-26T07:15:58;8.38;;;3.25;;
22248;SDS011;67538;52.180;5.646;2023-06-26T07:18:25;8.35;;;3.20;;
22248;SDS011;67538;52.180;5.646;2023-06-26T07:20:52;8.82;;;2.90;;
22248;SDS011;67538;52.180;5.646;2023-06-26T07:23:19;8.10;;;3.25;;
22248;SDS011;67538;52.180;5.646;2023-06-26T07:25:47;8.68;;;3.10;;
22248;SDS011;67538;52.180;5.646;2023-06-26T07:28:15;7.10;;;2.70;;
22248;SDS011;67538;52.180;5.646;2023-06-26T07:30:42;6.53;;;2.90;;
22248;SDS011;67538;52.180;5.646;2023-06-26T07:33:09;10.02;;;3.47;;
22248;SDS011;67538;52.180;5.646;2023-06-26T07:35:36;8.13;;;3.50;;
22248;SDS011;67538;52.180;5.646;2023-06-26T07:38:03;9.13;;;2.90;;
22248;SDS011;67538;52.180;5.646;2023-06-26T07:40:30;9.77;;;3.30;;
22248;SDS011;67538;52.180;5.646;2023-06-26T07:42:59;8.65;;;3.15;;
22248;SDS011;67538;52.180;5.646;2023-06-26T07:45:26;10.83;;;3.40;;
22248;SDS011;67538;52.180;5.646;2023-06-26T07:47:53;8.73;;;3.40;;
22248;SDS011;67538;52.180;5.646;2023-06-26T07:50:20;9.97;;;3.60;;
22248;SDS011;67538;52.180;5.646;2023-06-26T07:52:49;10.30;;;3.35;;
22248;SDS011;67538;52.180;5.646;2023-06-26T07:55:18;8.35;;;3.40;;
22248;SDS011;67538;52.180;5.646;2023-06-26T07:57:45;7.57;;;3.30;;
22248;SDS011;67538;52.180;5.646;2023-06-26T08:00:14;7.72;;;3.55;;
22248;SDS011;67538;52.180;5.646;2023-06-26T08:02:41;7.95;;;3.40;;
22248;SDS011;67538;52.180;5.646;2023-06-26T08:05:09;8.80;;;3.30;;
22248;SDS011;67538;52.180;5.646;2023-06-26T08:07:36;7.53;;;3.50;;
22248;SDS011;67538;52.180;5.646;2023-06-26T08:10:03;7.22;;;3.00;;
22248;SDS011;67538;52.180;5.646;2023-06-26T08:12:31;8.40;;;3.33;;
22248;SDS011;67538;52.180;5.646;2023-06-26T08:14:58;8.20;;;3.50;;
22248;SDS011;67538;52.180;5.646;2023-06-26T08:17:29;14.40;;;3.70;;
22248;SDS011;67538;52.180;5.646;2023-06-26T08:19:56;7.80;;;3.77;;
22248;SDS011;67538;52.180;5.646;2023-06-26T08:22:23;7.53;;;3.30;;
22248;SDS011;67538;52.180;5.646;2023-06-26T08:24:50;12.65;;;3.65;;
22248;SDS011;67538;52.180;5.646;2023-06-26T08:27:17;13.85;;;4.03;;
22248;SDS011;67538;52.180;5.646;2023-06-26T08:29:44;9.00;;;3.60;;
22248;SDS011;67538;52.180;5.646;2023-06-26T08:32:11;9.98;;;3.30;;
22248;SDS011;67538;52.180;5.646;2023-06-26T08:34:40;7.90;;;3.20;;
22248;SDS011;67538;52.180;5.646;2023-06-26T08:37:07;8.83;;;3.20;;
22248;SDS011;67538;52.180;5.646;2023-06-26T08:39:35;8.48;;;3.20;;
22248;SDS011;67538;52.180;5.646;2023-06-26T08:42:02;7.05;;;3.00;;
22248;SDS011;67538;52.180;5.646;2023-06-26T08:44:29;7.80;;;2.80;;
22248;SDS011;67538;52.180;5.646;2023-06-26T08:46:58;9.95;;;3.08;;
22248;SDS011;67538;52.180;5.646;2023-06-26T08:49:28;8.95;;;3.15;;
22248;SDS011;67538;52.180;5.646;2023-06-26T08:52:05;9.38;;;3.22;;
22248;SDS011;67538;52.180;5.646;2023-06-26T08:54:38;11.95;;;3.25;;
22248;SDS011;67538;52.180;5.646;2023-06-26T08:57:09;9.32;;;2.83;;
22248;SDS011;67538;52.180;5.646;2023-06-26T08:59:37;12.30;;;3.03;;
22248;SDS011;67538;52.180;5.646;2023-06-26T09:02:05;6.72;;;2.40;;
22248;SDS011;67538;52.180;5.646;2023-06-26T09:04:33;6.53;;;2.10;;
22248;SDS011;67538;52.180;5.646;2023-06-26T09:07:03;7.78;;;2.00;;
22248;SDS011;67538;52.180;5.646;2023-06-26T09:09:30;5.77;;;1.80;;
22248;SDS011;67538;52.180;5.646;2023-06-26T09:11:57;6.23;;;1.90;;
22248;SDS011;67538;52.180;5.646;2023-06-26T09:14:24;9.60;;;2.30;;
22248;SDS011;67538;52.180;5.646;2023-06-26T09:16:51;8.85;;;2.10;;
22248;SDS011;67538;52.180;5.646;2023-06-26T09:19:19;5.60;;;1.80;;
22248;SDS011;67538;52.180;5.646;2023-06-26T09:21:46;8.82;;;1.70;;
22248;SDS011;67538;52.180;5.646;2023-06-26T09:24:17;6.57;;;1.70;;
22248;SDS011;67538;52.180;5.646;2023-06-26T09:26:45;5.93;;;1.83;;
22248;SDS011;67538;52.180;5.646;2023-06-26T09:29:13;9.55;;;2.15;;
22248;SDS011;67538;52.180;5.646;2023-06-26T09:31:41;7.70;;;2.00;;
22248;SDS011;67538;52.180;5.646;2023-06-26T09:34:08;10.43;;;1.83;;
22248;SDS011;67538;52.180;5.646;2023-06-26T09:36:36;7.40;;;1.67;;
22248;SDS011;67538;52.180;5.646;2023-06-26T09:39:05;6.15;;;1.70;;
22248;SDS011;67538;52.180;5.646;2023-06-26T09:41:37;7.50;;;1.80;;
22248;SDS011;67538;52.180;5.646;2023-06-26T09:44:05;7.63;;;1.90;;
22248;SDS011;67538;52.180;5.646;2023-06-26T09:46:33;5.57;;;1.98;;
22248;SDS011;67538;52.180;5.646;2023-06-26T09:49:03;8.25;;;1.80;;
22248;SDS011;67538;52.180;5.646;2023-06-26T09:51:31;7.20;;;2.00;;
22248;SDS011;67538;52.180;5.646;2023-06-26T09:53:59;6.68;;;1.77;;
22248;SDS011;67538;52.180;5.646;2023-06-26T09:56:27;6.00;;;1.60;;
22248;SDS011;67538;52.180;5.646;2023-06-26T09:58:56;8.37;;;1.50;;
22248;SDS011;67538;52.180;5.646;2023-06-26T10:01:24;6.55;;;1.98;;
22248;SDS011;67538;52.180;5.646;2023-06-26T10:03:52;9.80;;;2.10;;
22248;SDS011;67538;52.180;5.646;2023-06-26T10:06:22;6.88;;;1.90;;
22248;SDS011;67538;52.180;5.646;2023-06-26T10:08:54;10.93;;;2.07;;
22248;SDS011;67538;52.180;5.646;2023-06-26T10:11:22;6.60;;;1.80;;
22248;SDS011;67538;52.180;5.646;2023-06-26T10:13:52;7.18;;;2.10;;
22248;SDS011;67538;52.180;5.646;2023-06-26T10:16:25;8.80;;;1.98;;
22248;SDS011;67538;52.180;5.646;2023-06-26T10:18:56;5.82;;;1.90;;
22248;SDS011;67538;52.180;5.646;2023-06-26T10:21:29;6.55;;;1.70;;
22248;SDS011;67538;52.180;5.646;2023-06-26T10:23:57;6.25;;;1.80;;
22248;SDS011;67538;52.180;5.646;2023-06-26T10:26:25;5.70;;;1.70;;
22248;SDS011;67538;52.180;5.646;2023-06-26T10:28:54;6.38;;;1.90;;
22248;SDS011;67538;52.180;5.646;2023-06-26T10:31:25;5.20;;;2.03;;
22248;SDS011;67538;52.180;5.646;2023-06-26T10:33:54;7.78;;;1.75;;
22248;SDS011;67538;52.180;5.646;2023-06-26T10:36:26;4.85;;;1.70;;
22248;SDS011;67538;52.180;5.646;2023-06-26T10:38:55;5.30;;;1.60;;
22248;SDS011;67538;52.180;5.646;2023-06-26T10:41:24;4.53;;;1.73;;
22248;SDS011;67538;52.180;5.646;2023-06-26T10:44:06;5.22;;;1.70;;
22248;SDS011;67538;52.180;5.646;2023-06-26T10:46:48;6.82;;;1.60;;
22248;SDS011;67538;52.180;5.646;2023-06-26T10:49:17;5.38;;;1.83;;
22248;SDS011;67538;52.180;5.646;2023-06-26T10:51:46;4.53;;;1.52;;
22248;SDS011;67538;52.180;5.646;2023-06-26T10:54:14;5.00;;;1.65;;
22248;SDS011;67538;52.180;5.646;2023-06-26T10:56:43;6.03;;;1.80;;
22248;SDS011;67538;52.180;5.646;2023-06-26T10:59:15;12.50;;;1.70;;
22248;SDS011;67538;52.180;5.646;2023-06-26T11:01:43;4.20;;;1.50;;
22248;SDS011;67538;52.180;5.646;2023-06-26T11:04:13;5.97;;;1.60;;
22248;SDS011;67538;52.180;5.646;2023-06-26T11:06:43;4.80;;;1.50;;
22248;SDS011;67538;52.180;5.646;2023-06-26T11:09:14;5.75;;;1.52;;
22248;SDS011;67538;52.180;5.646;2023-06-26T11:11:59;5.18;;;1.67;;
22248;SDS011;67538;52.180;5.646;2023-06-26T11:14:32;12.77;;;1.60;;
22248;SDS011;67538;52.180;5.646;2023-06-26T11:17:02;6.82;;;1.73;;
22248;SDS011;67538;52.180;5.646;2023-06-26T11:19:29;5.27;;;1.30;;
22248;SDS011;67538;52.180;5.646;2023-06-26T11:22:01;6.63;;;1.60;;
22248;SDS011;67538;52.180;5.646;2023-06-26T11:24:30;7.22;;;1.60;;
22248;SDS011;67538;52.180;5.646;2023-06-26T11:27:01;6.03;;;1.45;;
22248;SDS011;67538;52.180;5.646;2023-06-26T11:29:29;6.85;;;1.50;;
22248;SDS011;67538;52.180;5.646;2023-06-26T11:32:00;6.20;;;1.77;;
22248;SDS011;67538;52.180;5.646;2023-06-26T11:34:30;6.20;;;1.40;;
22248;SDS011;67538;52.180;5.646;2023-06-26T11:36:58;5.32;;;1.30;;
22248;SDS011;67538;52.180;5.646;2023-06-26T11:39:28;6.47;;;1.52;;
22248;SDS011;67538;52.180;5.646;2023-06-26T11:41:56;7.18;;;1.80;;
22248;SDS011;67538;52.180;5.646;2023-06-26T11:44:23;6.53;;;1.33;;
22248;SDS011;67538;52.180;5.646;2023-06-26T11:46:56;6.25;;;1.40;;
22248;SDS011;67538;52.180;5.646;2023-06-26T11:49:23;7.22;;;1.73;;
22248;SDS011;67538;52.180;5.646;2023-06-26T11:51:52;5.05;;;1.70;;
22248;SDS011;67538;52.180;5.646;2023-06-26T11:54:23;6.20;;;1.60;;
22248;SDS011;67538;52.180;5.646;2023-06-26T11:56:52;8.13;;;1.67;;
22248;SDS011;67538;52.180;5.646;2023-06-26T11:59:21;4.18;;;1.35;;
22248;SDS011;67538;52.180;5.646;2023-06-26T12:01:49;6.28;;;1.25;;
22248;SDS011;67538;52.180;5.646;2023-06-26T12:04:19;7.90;;;1.48;;
22248;SDS011;67538;52.180;5.646;2023-06-26T12:06:47;4.63;;;1.40;;
22248;SDS011;67538;52.180;5.646;2023-06-26T12:09:17;6.18;;;1.10;;
22248;SDS011;67538;52.180;5.646;2023-06-26T12:11:46;4.10;;;1.20;;
22248;SDS011;67538;52.180;5.646;2023-06-26T12:14:14;9.45;;;1.38;;
22248;SDS011;67538;52.180;5.646;2023-06-26T12:16:43;6.72;;;1.38;;
22248;SDS011;67538;52.180;5.646;2023-06-26T12:19:10;11.60;;;1.40;;
22248;SDS011;67538;52.180;5.646;2023-06-26T12:21:45;6.40;;;1.38;;
22248;SDS011;67538;52.180;5.646;2023-06-26T12:24:18;8.95;;;1.30;;
22248;SDS011;67538;52.180;5.646;2023-06-26T12:26:46;7.60;;;1.40;;
22248;SDS011;67538;52.180;5.646;2023-06-26T12:29:17;4.83;;;1.37;;
22248;SDS011;67538;52.180;5.646;2023-06-26T12:31:45;3.40;;;1.10;;
22248;SDS011;67538;52.180;5.646;2023-06-26T12:34:17;3.65;;;1.10;;
22248;SDS011;67538;52.180;5.646;2023-06-26T12:36:47;2.85;;;1.10;;
22248;SDS011;67538;52.180;5.646;2023-06-26T12:39:16;5.65;;;1.15;;
22248;SDS011;67538;52.180;5.646;2023-06-26T12:41:44;3.30;;;1.00;;
22248;SDS011;67538;52.180;5.646;2023-06-26T12:44:18;5.45;;;1.20;;
22248;SDS011;67538;52.180;5.646;2023-06-26T12:46:47;11.23;;;1.70;;
22248;SDS011;67538;52.180;5.646;2023-06-26T12:49:15;2.70;;;0.90;;
22248;SDS011;67538;52.180;5.646;2023-06-26T12:51:42;5.22;;;1.27;;
22248;SDS011;67538;52.180;5.646;2023-06-26T12:54:11;5.17;;;1.40;;
22248;SDS011;67538;52.180;5.646;2023-06-26T12:56:38;4.53;;;1.17;;
22248;SDS011;67538;52.180;5.646;2023-06-26T12:59:05;5.20;;;1.08;;
22248;SDS011;67538;52.180;5.646;2023-06-26T13:01:32;3.63;;;1.10;;
22248;SDS011;67538;52.180;5.646;2023-06-26T13:03:59;5.93;;;1.40;;
22248;SDS011;67538;52.180;5.646;2023-06-26T13:06:27;3.28;;;1.05;;
22248;SDS011;67538;52.180;5.646;2023-06-26T13:08:54;5.18;;;1.30;;
22248;SDS011;67538;52.180;5.646;2023-06-26T13:11:22;4.67;;;1.20;;
22248;SDS011;67538;52.180;5.646;2023-06-26T13:13:49;5.00;;;1.10;;
22248;SDS011;67538;52.180;5.646;2023-06-26T13:16:17;3.60;;;1.15;;
22248;SDS011;67538;52.180;5.646;2023-06-26T13:18:44;4.82;;;1.20;;
22248;SDS011;67538;52.180;5.646;2023-06-26T13:21:12;3.38;;;1.10;;
22248;SDS011;67538;52.180;5.646;2023-06-26T13:23:40;6.55;;;1.20;;
22248;SDS011;67538;52.180;5.646;2023-06-26T13:26:07;6.10;;;1.33;;
22248;SDS011;67538;52.180;5.646;2023-06-26T13:28:35;6.10;;;1.38;;
22248;SDS011;67538;52.180;5.646;2023-06-26T13:31:03;4.28;;;1.10;;
22248;SDS011;67538;52.180;5.646;2023-06-26T13:33:31;4.97;;;1.57;;
22248;SDS011;67538;52.180;5.646;2023-06-26T13:35:58;5.95;;;1.20;;
22248;SDS011;67538;52.180;5.646;2023-06-26T13:38:25;5.07;;;1.30;;
22248;SDS011;67538;52.180;5.646;2023-06-26T13:40:52;8.35;;;1.40;;
22248;SDS011;67538;52.180;5.646;2023-06-26T13:43:20;5.47;;;1.20;;
22248;SDS011;67538;52.180;5.646;2023-06-26T13:45:49;4.78;;;1.27;;
22248;SDS011;67538;52.180;5.646;2023-06-26T13:48:16;4.00;;;1.58;;
22248;SDS011;67538;52.180;5.646;2023-06-26T13:50:43;3.55;;;1.30;;
22248;SDS011;67538;52.180;5.646;2023-06-26T13:53:11;5.78;;;1.40;;
22248;SDS011;67538;52.180;5.646;2023-06-26T13:55:38;4.80;;;0.90;;
22248;SDS011;67538;52.180;5.646;2023-06-26T13:58:06;5.27;;;1.20;;
22248;SDS011;67538;52.180;5.646;2023-06-26T14:00:34;5.22;;;1.23;;
22248;SDS011;67538;52.180;5.646;2023-06-26T14:03:03;5.32;;;1.27;;
22248;SDS011;67538;52.180;5.646;2023-06-26T14:05:31;4.82;;;1.10;;
22248;SDS011;67538;52.180;5.646;2023-06-26T14:07:58;4.90;;;1.37;;
22248;SDS011;67538;52.180;5.646;2023-06-26T14:10:26;4.80;;;1.27;;
22248;SDS011;67538;52.180;5.646;2023-06-26T14:12:53;5.10;;;1.20;;
22248;SDS011;67538;52.180;5.646;2023-06-26T14:15:20;4.15;;;1.30;;
22248;SDS011;67538;52.180;5.646;2023-06-26T14:17:47;5.03;;;1.23;;
22248;SDS011;67538;52.180;5.646;2023-06-26T14:20:17;4.15;;;1.20;;
22248;SDS011;67538;52.180;5.646;2023-06-26T14:22:46;5.65;;;1.20;;
22248;SDS011;67538;52.180;5.646;2023-06-26T14:25:13;2.92;;;1.00;;
22248;SDS011;67538;52.180;5.646;2023-06-26T14:27:40;5.05;;;1.40;;
22248;SDS011;67538;52.180;5.646;2023-06-26T14:30:08;7.22;;;1.45;;
22248;SDS011;67538;52.180;5.646;2023-06-26T14:32:35;6.25;;;1.20;;
22248;SDS011;67538;52.180;5.646;2023-06-26T14:35:03;4.72;;;1.10;;
22248;SDS011;67538;52.180;5.646;2023-06-26T14:37:32;4.07;;;1.15;;
22248;SDS011;67538;52.180;5.646;2023-06-26T14:39:59;3.25;;;1.38;;
22248;SDS011;67538;52.180;5.646;2023-06-26T14:42:26;5.20;;;1.20;;
22248;SDS011;67538;52.180;5.646;2023-06-26T14:44:53;7.90;;;1.25;;